Kortrijk, Belgium
Current Conditions -  °F | °C
As of 11:00 AM on Friday 19 Dec 2014 (Local Time) from LFQQ Reporting Station
Light Rain Light Rain  
Wind Chill: 54°   Ceiling: 1200
Heat Index: 54°   Visibility: 6mi
Dew Point: 52°   Wind: 20mph
Humidity: 94%   Direction: 240°WSW
Pressure: 29.91"   Gusts: NA
Location:  50.83°N, 3.26°E
Report Text: LFQQ 191000Z 24017KT 9999 -RA OVC012 12/11 Q1013 NOSIG
Loading
Personal Weather Stations






























Interactive Weather Map New forecast layout! Learn more

10-Day Weather Forecast

Advertisements
Track Severe Weather on mobile